sensor_id;sensor_type;location;lat;lon;timestamp;pressure;altitude;pressure_sealevel;temperature;humidity
73674;BME280;61975;48.660;10.164;2023-08-12T00:00:41;96033.66;;;20.16;100.00
73674;BME280;61975;48.660;10.164;2023-08-12T00:03:06;96023.25;;;20.13;100.00
73674;BME280;61975;48.660;10.164;2023-08-12T00:05:32;96025.69;;;20.11;100.00
73674;BME280;61975;48.660;10.164;2023-08-12T00:07:58;96026.53;;;20.08;100.00
73674;BME280;61975;48.660;10.164;2023-08-12T00:10:23;96026.97;;;20.07;100.00
73674;BME280;61975;48.660;10.164;2023-08-12T00:12:49;96027.50;;;20.02;100.00
73674;BME280;61975;48.660;10.164;2023-08-12T00:15:14;96025.19;;;19.97;100.00
73674;BME280;61975;48.660;10.164;2023-08-12T00:17:40;96030.03;;;19.96;100.00
73674;BME280;61975;48.660;10.164;2023-08-12T00:20:07;96018.03;;;19.92;100.00
73674;BME280;61975;48.660;10.164;2023-08-12T00:22:34;96012.03;;;19.90;100.00
73674;BME280;61975;48.660;10.164;2023-08-12T00:24:59;96016.50;;;19.88;100.00
73674;BME280;61975;48.660;10.164;2023-08-12T00:27:25;96015.00;;;19.83;100.00
73674;BME280;61975;48.660;10.164;2023-08-12T00:29:50;96014.66;;;19.81;100.00
73674;BME280;61975;48.660;10.164;2023-08-12T00:32:16;96013.56;;;19.75;100.00
73674;BME280;61975;48.660;10.164;2023-08-12T00:34:41;96010.47;;;19.70;100.00
73674;BME280;61975;48.660;10.164;2023-08-12T00:37:07;96003.31;;;19.65;100.00
73674;BME280;61975;48.660;10.164;2023-08-12T00:39:32;96006.63;;;19.60;100.00
73674;BME280;61975;48.660;10.164;2023-08-12T00:41:58;96012.28;;;19.60;100.00
73674;BME280;61975;48.660;10.164;2023-08-12T00:44:23;96001.88;;;19.57;100.00
73674;BME280;61975;48.660;10.164;2023-08-12T00:46:49;96000.69;;;19.55;100.00
73674;BME280;61975;48.660;10.164;2023-08-12T00:49:15;95998.75;;;19.52;100.00
73674;BME280;61975;48.660;10.164;2023-08-12T00:51:42;95991.94;;;19.49;100.00
73674;BME280;61975;48.660;10.164;2023-08-12T00:54:13;95986.84;;;19.44;100.00
73674;BME280;61975;48.660;10.164;2023-08-12T00:56:39;95984.44;;;19.43;100.00
73674;BME280;61975;48.660;10.164;2023-08-12T00:59:05;95990.13;;;19.39;100.00
73674;BME280;61975;48.660;10.164;2023-08-12T01:01:32;95986.59;;;19.35;100.00
73674;BME280;61975;48.660;10.164;2023-08-12T01:03:58;95987.47;;;19.32;100.00
73674;BME280;61975;48.660;10.164;2023-08-12T01:06:23;95979.53;;;19.27;100.00
73674;BME280;61975;48.660;10.164;2023-08-12T01:08:49;95982.81;;;19.22;100.00
73674;BME280;61975;48.660;10.164;2023-08-12T01:11:29;95977.25;;;19.19;100.00
73674;BME280;61975;48.660;10.164;2023-08-12T01:16:51;95977.47;;;19.08;100.00
73674;BME280;61975;48.660;10.164;2023-08-12T01:19:38;95973.13;;;19.03;100.00
73674;BME280;61975;48.660;10.164;2023-08-12T01:22:04;95965.09;;;19.02;100.00
73674;BME280;61975;48.660;10.164;2023-08-12T01:24:51;95974.75;;;19.01;100.00
73674;BME280;61975;48.660;10.164;2023-08-12T01:27:17;95970.00;;;18.98;100.00
73674;BME280;61975;48.660;10.164;2023-08-12T01:29:45;95966.91;;;18.92;100.00
73674;BME280;61975;48.660;10.164;2023-08-12T01:32:17;95961.25;;;18.92;100.00
73674;BME280;61975;48.660;10.164;2023-08-12T01:37:32;95952.88;;;18.89;100.00
73674;BME280;61975;48.660;10.164;2023-08-12T01:40:01;95953.72;;;18.86;100.00
73674;BME280;61975;48.660;10.164;2023-08-12T01:42:30;95950.56;;;18.84;100.00
73674;BME280;61975;48.660;10.164;2023-08-12T01:44:57;95959.78;;;18.84;100.00
73674;BME280;61975;48.660;10.164;2023-08-12T01:47:23;95949.38;;;18.81;100.00
73674;BME280;61975;48.660;10.164;2023-08-12T01:49:48;95948.59;;;18.81;100.00
73674;BME280;61975;48.660;10.164;2023-08-12T01:52:14;95956.66;;;18.79;100.00
73674;BME280;61975;48.660;10.164;2023-08-12T01:54:39;95951.47;;;18.77;100.00
73674;BME280;61975;48.660;10.164;2023-08-12T01:57:05;95956.75;;;18.75;100.00
73674;BME280;61975;48.660;10.164;2023-08-12T01:59:39;95955.13;;;18.74;100.00
73674;BME280;61975;48.660;10.164;2023-08-12T02:02:05;95951.16;;;18.72;100.00
73674;BME280;61975;48.660;10.164;2023-08-12T02:04:30;95953.63;;;18.70;100.00
73674;BME280;61975;48.660;10.164;2023-08-12T02:06:56;95953.25;;;18.68;100.00
73674;BME280;61975;48.660;10.164;2023-08-12T02:09:23;95948.06;;;18.66;100.00
73674;BME280;61975;48.660;10.164;2023-08-12T02:11:49;95947.69;;;18.64;100.00
73674;BME280;61975;48.660;10.164;2023-08-12T02:14:15;95943.72;;;18.62;100.00
73674;BME280;61975;48.660;10.164;2023-08-12T02:16:40;95941.75;;;18.59;100.00
73674;BME280;61975;48.660;10.164;2023-08-12T02:19:06;95940.25;;;18.54;100.00
73674;BME280;61975;48.660;10.164;2023-08-12T02:21:31;95943.47;;;18.53;100.00
73674;BME280;61975;48.660;10.164;2023-08-12T02:23:57;95940.28;;;18.51;100.00
73674;BME280;61975;48.660;10.164;2023-08-12T02:26:23;95936.31;;;18.48;100.00
73674;BME280;61975;48.660;10.164;2023-08-12T02:28:48;95935.50;;;18.48;100.00
73674;BME280;61975;48.660;10.164;2023-08-12T02:31:15;95938.75;;;18.46;100.00
73674;BME280;61975;48.660;10.164;2023-08-12T02:33:41;95930.75;;;18.45;100.00
73674;BME280;61975;48.660;10.164;2023-08-12T02:36:07;95928.34;;;18.43;100.00
73674;BME280;61975;48.660;10.164;2023-08-12T02:38:32;95928.78;;;18.42;100.00
73674;BME280;61975;48.660;10.164;2023-08-12T02:40:58;95929.66;;;18.39;100.00
73674;BME280;61975;48.660;10.164;2023-08-12T02:43:23;95929.28;;;18.37;100.00
73674;BME280;61975;48.660;10.164;2023-08-12T02:45:48;95931.28;;;18.36;100.00
73674;BME280;61975;48.660;10.164;2023-08-12T02:48:14;95920.88;;;18.33;100.00
73674;BME280;61975;48.660;10.164;2023-08-12T02:50:39;95929.38;;;18.30;100.00
73674;BME280;61975;48.660;10.164;2023-08-12T02:53:05;95921.34;;;18.28;100.00
73674;BME280;61975;48.660;10.164;2023-08-12T02:55:31;95922.22;;;18.25;100.00
73674;BME280;61975;48.660;10.164;2023-08-12T02:58:00;95919.81;;;18.24;100.00
73674;BME280;61975;48.660;10.164;2023-08-12T03:00:26;95922.28;;;18.22;100.00
73674;BME280;61975;48.660;10.164;2023-08-12T03:02:52;95919.91;;;18.20;100.00
73674;BME280;61975;48.660;10.164;2023-08-12T03:05:18;95922.75;;;18.17;100.00
73674;BME280;61975;48.660;10.164;2023-08-12T03:07:43;95916.78;;;18.15;100.00
73674;BME280;61975;48.660;10.164;2023-08-12T03:10:09;95928.84;;;18.12;100.00
73674;BME280;61975;48.660;10.164;2023-08-12T03:12:34;95920.03;;;18.10;100.00
73674;BME280;61975;48.660;10.164;2023-08-12T03:15:01;95922.94;;;18.06;100.00
73674;BME280;61975;48.660;10.164;2023-08-12T03:17:26;95922.53;;;18.04;100.00
73674;BME280;61975;48.660;10.164;2023-08-12T03:19:52;95914.53;;;18.03;100.00
73674;BME280;61975;48.660;10.164;2023-08-12T03:22:19;95918.56;;;18.02;100.00
73674;BME280;61975;48.660;10.164;2023-08-12T03:24:44;95919.38;;;18.02;100.00
73674;BME280;61975;48.660;10.164;2023-08-12T03:27:10;95923.38;;;18.01;100.00
73674;BME280;61975;48.660;10.164;2023-08-12T03:29:35;95916.19;;;18.00;100.00
73674;BME280;61975;48.660;10.164;2023-08-12T03:32:01;95922.63;;;18.01;100.00
73674;BME280;61975;48.660;10.164;2023-08-12T03:34:28;95923.03;;;17.99;100.00
73674;BME280;61975;48.660;10.164;2023-08-12T03:36:55;95914.22;;;17.97;100.00
73674;BME280;61975;48.660;10.164;2023-08-12T03:39:20;95916.22;;;17.97;100.00
73674;BME280;61975;48.660;10.164;2023-08-12T03:41:45;95913.88;;;17.95;100.00
73674;BME280;61975;48.660;10.164;2023-08-12T03:44:11;95917.88;;;17.94;100.00
73674;BME280;61975;48.660;10.164;2023-08-12T03:46:36;95914.28;;;17.94;100.00
73674;BME280;61975;48.660;10.164;2023-08-12T03:49:02;95911.09;;;17.92;100.00
73674;BME280;61975;48.660;10.164;2023-08-12T03:51:27;95902.69;;;17.92;100.00
73674;BME280;61975;48.660;10.164;2023-08-12T03:53:53;95900.69;;;17.92;100.00
73674;BME280;61975;48.660;10.164;2023-08-12T03:56:18;95902.69;;;17.92;100.00
73674;BME280;61975;48.660;10.164;2023-08-12T03:58:45;95906.72;;;17.91;100.00
73674;BME280;61975;48.660;10.164;2023-08-12T04:01:10;95903.53;;;17.89;100.00
73674;BME280;61975;48.660;10.164;2023-08-12T04:03:35;95912.38;;;17.87;100.00
73674;BME280;61975;48.660;10.164;2023-08-12T04:06:01;95910.81;;;17.83;100.00
73674;BME280;61975;48.660;10.164;2023-08-12T04:08:26;95912.47;;;17.80;100.00
73674;BME280;61975;48.660;10.164;2023-08-12T04:10:52;95903.28;;;17.80;100.00
73674;BME280;61975;48.660;10.164;2023-08-12T04:13:17;95897.28;;;17.78;100.00
73674;BME280;61975;48.660;10.164;2023-08-12T04:15:48;95902.88;;;17.78;100.00
73674;BME280;61975;48.660;10.164;2023-08-12T04:18:13;95896.47;;;17.77;100.00
73674;BME280;61975;48.660;10.164;2023-08-12T04:20:39;95902.88;;;17.78;100.00
73674;BME280;61975;48.660;10.164;2023-08-12T04:23:04;95905.31;;;17.76;100.00
73674;BME280;61975;48.660;10.164;2023-08-12T04:25:29;95905.31;;;17.76;100.00
73674;BME280;61975;48.660;10.164;2023-08-12T04:27:55;95897.28;;;17.78;100.00
73674;BME280;61975;48.660;10.164;2023-08-12T04:30:20;95898.84;;;17.79;100.00
73674;BME280;61975;48.660;10.164;2023-08-12T04:32:46;95900.47;;;17.80;100.00
73674;BME280;61975;48.660;10.164;2023-08-12T04:35:11;95893.22;;;17.79;100.00
73674;BME280;61975;48.660;10.164;2023-08-12T04:37:36;95896.84;;;17.79;100.00
73674;BME280;61975;48.660;10.164;2023-08-12T04:40:02;95904.03;;;17.80;100.00
73674;BME280;61975;48.660;10.164;2023-08-12T04:42:32;95895.63;;;17.80;100.00
73674;BME280;61975;48.660;10.164;2023-08-12T04:44:58;95890.44;;;17.79;100.00
73674;BME280;61975;48.660;10.164;2023-08-12T04:47:23;95896.44;;;17.81;100.00
73674;BME280;61975;48.660;10.164;2023-08-12T04:49:49;95892.41;;;17.82;100.00
73674;BME280;61975;48.660;10.164;2023-08-12T04:52:14;95888.34;;;17.83;100.00
73674;BME280;61975;48.660;10.164;2023-08-12T04:54:40;95895.63;;;17.80;100.00
73674;BME280;61975;48.660;10.164;2023-08-12T04:57:05;95905.59;;;17.85;100.00
73674;BME280;61975;48.660;10.164;2023-08-12T04:59:30;95897.56;;;17.87;100.00
73674;BME280;61975;48.660;10.164;2023-08-12T05:01:56;95891.06;;;17.90;100.00
73674;BME280;61975;48.660;10.164;2023-08-12T05:04:21;95898.63;;;17.93;100.00
73674;BME280;61975;48.660;10.164;2023-08-12T05:06:47;95894.22;;;17.95;100.00
73674;BME280;61975;48.660;10.164;2023-08-12T05:09:12;95895.38;;;17.98;100.00
73674;BME280;61975;48.660;10.164;2023-08-12T05:11:37;95892.13;;;17.99;100.00
73674;BME280;61975;48.660;10.164;2023-08-12T05:14:03;95898.50;;;18.03;100.00
73674;BME280;61975;48.660;10.164;2023-08-12T05:16:28;95889.63;;;18.05;100.00
73674;BME280;61975;48.660;10.164;2023-08-12T05:18:54;95896.00;;;18.09;100.00
73674;BME280;61975;48.660;10.164;2023-08-12T05:21:20;95893.53;;;18.11;100.00
73674;BME280;61975;48.660;10.164;2023-08-12T05:23:45;95901.53;;;18.12;100.00
73674;BME280;61975;48.660;10.164;2023-08-12T05:26:10;95900.69;;;18.15;100.00
73674;BME280;61975;48.660;10.164;2023-08-12T05:28:36;95895.03;;;18.19;100.00
73674;BME280;61975;48.660;10.164;2023-08-12T05:31:01;95891.72;;;18.24;100.00
73674;BME280;61975;48.660;10.164;2023-08-12T05:33:27;95898.06;;;18.28;100.00
73674;BME280;61975;48.660;10.164;2023-08-12T05:35:52;95897.22;;;18.31;100.00
73674;BME280;61975;48.660;10.164;2023-08-12T05:38:18;95897.94;;;18.35;100.00
73674;BME280;61975;48.660;10.164;2023-08-12T05:40:43;95899.50;;;18.39;100.00
73674;BME280;61975;48.660;10.164;2023-08-12T05:43:08;95901.84;;;18.44;100.00
73674;BME280;61975;48.660;10.164;2023-08-12T05:45:34;95899.34;;;18.50;100.00
73674;BME280;61975;48.660;10.164;2023-08-12T05:47:59;95897.63;;;18.56;100.00
73674;BME280;61975;48.660;10.164;2023-08-12T05:50:24;95899.53;;;18.62;100.00
73674;BME280;61975;48.660;10.164;2023-08-12T05:52:50;95899.81;;;18.68;100.00
73674;BME280;61975;48.660;10.164;2023-08-12T05:55:15;95903.34;;;18.72;100.00
73674;BME280;61975;48.660;10.164;2023-08-12T05:57:41;95902.50;;;18.75;100.00
73674;BME280;61975;48.660;10.164;2023-08-12T06:00:06;95904.03;;;18.79;100.00
73674;BME280;61975;48.660;10.164;2023-08-12T06:02:32;95900.38;;;18.82;100.00
73674;BME280;61975;48.660;10.164;2023-08-12T06:04:57;95902.66;;;18.87;100.00
73674;BME280;61975;48.660;10.164;2023-08-12T06:07:23;95902.63;;;18.91;100.00
73674;BME280;61975;48.660;10.164;2023-08-12T06:09:49;95910.53;;;18.96;100.00
73674;BME280;61975;48.660;10.164;2023-08-12T06:12:15;95898.00;;;19.00;100.00
73674;BME280;61975;48.660;10.164;2023-08-12T06:14:40;95902.34;;;19.05;100.00
73674;BME280;61975;48.660;10.164;2023-08-12T06:17:06;95896.63;;;19.08;100.00
73674;BME280;61975;48.660;10.164;2023-08-12T06:19:32;95886.47;;;19.15;100.00
73674;BME280;61975;48.660;10.164;2023-08-12T06:21:57;95887.56;;;19.21;100.00
73674;BME280;61975;48.660;10.164;2023-08-12T06:24:23;95889.06;;;19.25;100.00
73674;BME280;61975;48.660;10.164;2023-08-12T06:26:48;95890.59;;;19.30;100.00
73674;BME280;61975;48.660;10.164;2023-08-12T06:29:13;95893.69;;;19.35;100.00
73674;BME280;61975;48.660;10.164;2023-08-12T06:31:39;95896.03;;;19.40;100.00
73674;BME280;61975;48.660;10.164;2023-08-12T06:34:04;95891.47;;;19.46;100.00
73674;BME280;61975;48.660;10.164;2023-08-12T06:36:30;95890.94;;;19.51;100.00
73674;BME280;61975;48.660;10.164;2023-08-12T06:38:55;95899.25;;;19.58;100.00
73674;BME280;61975;48.660;10.164;2023-08-12T06:41:20;95894.75;;;19.61;100.00
73674;BME280;61975;48.660;10.164;2023-08-12T06:43:46;95898.66;;;19.67;100.00
73674;BME280;61975;48.660;10.164;2023-08-12T06:46:11;95893.72;;;19.71;100.00
73674;BME280;61975;48.660;10.164;2023-08-12T06:48:36;95899.56;;;19.80;100.00
73674;BME280;61975;48.660;10.164;2023-08-12T06:51:02;95898.63;;;19.86;100.00
73674;BME280;61975;48.660;10.164;2023-08-12T06:53:32;95897.31;;;19.91;100.00
73674;BME280;61975;48.660;10.164;2023-08-12T06:55:57;95891.50;;;19.98;100.00
73674;BME280;61975;48.660;10.164;2023-08-12T06:58:22;95897.41;;;20.03;100.00
73674;BME280;61975;48.660;10.164;2023-08-12T07:00:48;95890.81;;;20.10;100.00
73674;BME280;61975;48.660;10.164;2023-08-12T07:03:13;95882.31;;;20.13;100.00
73674;BME280;61975;48.660;10.164;2023-08-12T07:05:38;95882.84;;;20.24;100.00
73674;BME280;61975;48.660;10.164;2023-08-12T07:08:04;95876.31;;;20.27;100.00
73674;BME280;61975;48.660;10.164;2023-08-12T07:10:29;95880.22;;;20.33;100.00
73674;BME280;61975;48.660;10.164;2023-08-12T07:12:55;95881.78;;;20.34;100.00
73674;BME280;61975;48.660;10.164;2023-08-12T07:15:20;95886.88;;;20.39;100.00
73674;BME280;61975;48.660;10.164;2023-08-12T07:17:45;95893.59;;;20.45;100.00
73674;BME280;61975;48.660;10.164;2023-08-12T07:20:11;95895.78;;;20.54;100.00
73674;BME280;61975;48.660;10.164;2023-08-12T07:22:36;95889.53;;;20.62;100.00
73674;BME280;61975;48.660;10.164;2023-08-12T07:25:02;95892.09;;;20.73;100.00
73674;BME280;61975;48.660;10.164;2023-08-12T07:27:27;95885.34;;;20.83;100.00
73674;BME280;61975;48.660;10.164;2023-08-12T07:29:53;95884.28;;;20.93;100.00
73674;BME280;61975;48.660;10.164;2023-08-12T07:32:18;95882.44;;;21.02;100.00
73674;BME280;61975;48.660;10.164;2023-08-12T07:34:44;95885.31;;;21.15;100.00
73674;BME280;61975;48.660;10.164;2023-08-12T07:37:10;95887.50;;;21.23;99.37
73674;BME280;61975;48.660;10.164;2023-08-12T07:39:35;95890.09;;;21.30;97.65
73674;BME280;61975;48.660;10.164;2023-08-12T07:42:01;95883.38;;;21.40;96.86
73674;BME280;61975;48.660;10.164;2023-08-12T07:44:26;95884.16;;;21.53;96.88
73674;BME280;61975;48.660;10.164;2023-08-12T07:46:52;95886.25;;;21.66;95.62
73674;BME280;61975;48.660;10.164;2023-08-12T07:49:17;95880.19;;;21.80;95.06
73674;BME280;61975;48.660;10.164;2023-08-12T07:51:42;95878.94;;;21.93;93.48
73674;BME280;61975;48.660;10.164;2023-08-12T07:54:08;95872.97;;;22.04;91.82
73674;BME280;61975;48.660;10.164;2023-08-12T07:56:33;95869.34;;;22.16;92.21
73674;BME280;61975;48.660;10.164;2023-08-12T07:58:58;95880.31;;;22.26;90.71
73674;BME280;61975;48.660;10.164;2023-08-12T08:01:24;95883.00;;;22.42;90.63
73674;BME280;61975;48.660;10.164;2023-08-12T08:03:49;95872.97;;;22.54;90.91
73674;BME280;61975;48.660;10.164;2023-08-12T08:06:14;95869.44;;;22.62;90.11
73674;BME280;61975;48.660;10.164;2023-08-12T08:08:40;95882.31;;;22.63;88.13
73674;BME280;61975;48.660;10.164;2023-08-12T08:11:05;95879.03;;;22.65;85.43
73674;BME280;61975;48.660;10.164;2023-08-12T08:13:31;95884.94;;;22.70;84.59
73674;BME280;61975;48.660;10.164;2023-08-12T08:15:56;95883.56;;;22.75;85.92
73674;BME280;61975;48.660;10.164;2023-08-12T08:18:22;95883.91;;;22.77;87.91
73674;BME280;61975;48.660;10.164;2023-08-12T08:20:47;95874.81;;;22.82;88.61
73674;BME280;61975;48.660;10.164;2023-08-12T08:23:13;95878.66;;;22.88;87.06
73674;BME280;61975;48.660;10.164;2023-08-12T08:25:38;95878.75;;;22.97;87.38
73674;BME280;61975;48.660;10.164;2023-08-12T08:28:04;95879.16;;;23.08;85.87
73674;BME280;61975;48.660;10.164;2023-08-12T08:30:29;95880.94;;;23.14;86.04
73674;BME280;61975;48.660;10.164;2023-08-12T08:32:55;95881.94;;;23.20;86.19
73674;BME280;61975;48.660;10.164;2023-08-12T08:35:20;95879.34;;;23.26;87.06
73674;BME280;61975;48.660;10.164;2023-08-12T08:37:45;95880.66;;;23.34;86.63
73674;BME280;61975;48.660;10.164;2023-08-12T08:40:11;95873.34;;;23.45;86.73
73674;BME280;61975;48.660;10.164;2023-08-12T08:42:37;95871.06;;;23.53;85.87
73674;BME280;61975;48.660;10.164;2023-08-12T08:45:07;95870.44;;;23.58;85.50
73674;BME280;61975;48.660;10.164;2023-08-12T08:47:35;95860.56;;;23.62;84.82
73674;BME280;61975;48.660;10.164;2023-08-12T08:50:01;95860.28;;;23.69;84.79
73674;BME280;61975;48.660;10.164;2023-08-12T08:52:27;95859.69;;;23.74;85.23
73674;BME280;61975;48.660;10.164;2023-08-12T08:54:53;95861.78;;;23.83;84.94
73674;BME280;61975;48.660;10.164;2023-08-12T08:57:19;95868.75;;;23.91;84.36
73674;BME280;61975;48.660;10.164;2023-08-12T08:59:45;95869.50;;;24.04;81.43
73674;BME280;61975;48.660;10.164;2023-08-12T09:02:16;95861.63;;;24.08;80.39
73674;BME280;61975;48.660;10.164;2023-08-12T09:04:46;95865.28;;;24.18;80.61
73674;BME280;61975;48.660;10.164;2023-08-12T09:07:12;95870.56;;;24.28;80.79
73674;BME280;61975;48.660;10.164;2023-08-12T09:09:40;95868.38;;;24.41;79.34
73674;BME280;61975;48.660;10.164;2023-08-12T09:12:08;95871.88;;;24.54;79.47
73674;BME280;61975;48.660;10.164;2023-08-12T09:14:35;95868.19;;;24.66;79.54
73674;BME280;61975;48.660;10.164;2023-08-12T09:17:00;95870.56;;;24.77;79.52
73674;BME280;61975;48.660;10.164;2023-08-12T09:19:26;95872.97;;;24.87;78.41
73674;BME280;61975;48.660;10.164;2023-08-12T09:21:53;95863.78;;;24.92;77.47
73674;BME280;61975;48.660;10.164;2023-08-12T09:24:24;95874.84;;;24.99;77.06
73674;BME280;61975;48.660;10.164;2023-08-12T09:26:54;95881.97;;;25.04;75.25
73674;BME280;61975;48.660;10.164;2023-08-12T09:29:31;95873.28;;;25.07;75.34
73674;BME280;61975;48.660;10.164;2023-08-12T09:34:35;95873.28;;;25.16;76.31
73674;BME280;61975;48.660;10.164;2023-08-12T09:37:01;95875.97;;;25.20;74.31
73674;BME280;61975;48.660;10.164;2023-08-12T09:39:28;95880.41;;;25.21;73.47
73674;BME280;61975;48.660;10.164;2023-08-12T09:41:54;95881.16;;;25.21;74.13
73674;BME280;61975;48.660;10.164;2023-08-12T09:44:21;95881.16;;;25.21;74.69
73674;BME280;61975;48.660;10.164;2023-08-12T09:46:47;95887.66;;;25.22;74.76
73674;BME280;61975;48.660;10.164;2023-08-12T09:49:13;95887.66;;;25.22;73.25
73674;BME280;61975;48.660;10.164;2023-08-12T09:51:38;95884.66;;;25.25;74.10
73674;BME280;61975;48.660;10.164;2023-08-12T09:54:09;95884.88;;;25.31;75.34
73674;BME280;61975;48.660;10.164;2023-08-12T09:56:36;95884.53;;;25.38;74.87
73674;BME280;61975;48.660;10.164;2023-08-12T09:59:05;95891.81;;;25.48;74.76
73674;BME280;61975;48.660;10.164;2023-08-12T10:01:31;95890.03;;;25.59;74.73
73674;BME280;61975;48.660;10.164;2023-08-12T10:03:56;95883.69;;;25.73;73.90
73674;BME280;61975;48.660;10.164;2023-08-12T10:06:22;95878.00;;;25.91;72.39
73674;BME280;61975;48.660;10.164;2023-08-12T10:08:48;95877.38;;;25.96;70.10
73674;BME280;61975;48.660;10.164;2023-08-12T10:11:14;95878.31;;;26.02;69.61
73674;BME280;61975;48.660;10.164;2023-08-12T10:13:40;95881.28;;;26.08;67.84
73674;BME280;61975;48.660;10.164;2023-08-12T10:16:07;95872.09;;;26.13;68.11
73674;BME280;61975;48.660;10.164;2023-08-12T10:18:33;95869.38;;;26.18;67.85
73674;BME280;61975;48.660;10.164;2023-08-12T10:21:00;95861.03;;;26.24;68.14
73674;BME280;61975;48.660;10.164;2023-08-12T10:23:25;95868.09;;;26.28;67.06
73674;BME280;61975;48.660;10.164;2023-08-12T10:25:54;95869.69;;;26.29;65.70
73674;BME280;61975;48.660;10.164;2023-08-12T10:28:20;95865.56;;;26.30;65.73
73674;BME280;61975;48.660;10.164;2023-08-12T10:30:46;95851.66;;;26.32;66.39
73674;BME280;61975;48.660;10.164;2023-08-12T10:33:14;95854.78;;;26.34;66.79
73674;BME280;61975;48.660;10.164;2023-08-12T10:35:45;95848.28;;;26.34;66.71
73674;BME280;61975;48.660;10.164;2023-08-12T10:38:14;95847.81;;;26.35;66.83
73674;BME280;61975;48.660;10.164;2023-08-12T10:40:41;95842.13;;;26.35;66.67
73674;BME280;61975;48.660;10.164;2023-08-12T10:43:07;95836.91;;;26.34;66.88
73674;BME280;61975;48.660;10.164;2023-08-12T10:45:51;95840.56;;;26.34;66.19
73674;BME280;61975;48.660;10.164;2023-08-12T10:50:44;95836.91;;;26.34;65.87
73674;BME280;61975;48.660;10.164;2023-08-12T10:53:25;95828.22;;;26.37;66.90
73674;BME280;61975;48.660;10.164;2023-08-12T10:55:56;95831.19;;;26.43;68.04
73674;BME280;61975;48.660;10.164;2023-08-12T11:00:55;95808.00;;;26.59;69.37
73674;BME280;61975;48.660;10.164;2023-08-12T11:03:21;95810.03;;;26.68;68.61
73674;BME280;61975;48.660;10.164;2023-08-12T11:05:46;95816.75;;;26.79;67.78
73674;BME280;61975;48.660;10.164;2023-08-12T11:08:13;95801.06;;;26.84;68.15
73674;BME280;61975;48.660;10.164;2023-08-12T11:10:39;95787.34;;;26.97;68.21
73674;BME280;61975;48.660;10.164;2023-08-12T11:13:04;95775.91;;;27.06;67.02
73674;BME280;61975;48.660;10.164;2023-08-12T11:17:59;95777.91;;;27.29;65.66
73674;BME280;61975;48.660;10.164;2023-08-12T11:20:27;95765.75;;;27.43;64.80
73674;BME280;61975;48.660;10.164;2023-08-12T11:22:54;95771.16;;;27.55;62.83
73674;BME280;61975;48.660;10.164;2023-08-12T11:25:19;95778.44;;;27.71;61.79
73674;BME280;61975;48.660;10.164;2023-08-12T11:27:46;95792.25;;;27.87;60.17
73674;BME280;61975;48.660;10.164;2023-08-12T11:30:18;95783.78;;;27.92;59.75
73674;BME280;61975;48.660;10.164;2023-08-12T11:32:49;95797.16;;;28.01;59.46
73674;BME280;61975;48.660;10.164;2023-08-12T11:35:16;95797.06;;;28.10;58.26
73674;BME280;61975;48.660;10.164;2023-08-12T11:37:47;95793.78;;;28.17;57.59
73674;BME280;61975;48.660;10.164;2023-08-12T11:40:14;95782.94;;;28.21;57.71
73674;BME280;61975;48.660;10.164;2023-08-12T11:42:42;95791.09;;;28.28;57.15
73674;BME280;61975;48.660;10.164;2023-08-12T11:45:08;95779.19;;;28.29;57.13
73674;BME280;61975;48.660;10.164;2023-08-12T11:47:35;95781.34;;;28.34;58.09
73674;BME280;61975;48.660;10.164;2023-08-12T11:50:11;95772.28;;;28.36;58.33
73674;BME280;61975;48.660;10.164;2023-08-12T11:52:37;95762.22;;;28.40;58.67
73674;BME280;61975;48.660;10.164;2023-08-12T11:55:05;95770.41;;;28.47;58.98
73674;BME280;61975;48.660;10.164;2023-08-12T11:57:30;95764.75;;;28.53;59.09
73674;BME280;61975;48.660;10.164;2023-08-12T12:00:00;95764.06;;;28.58;57.33
73674;BME280;61975;48.660;10.164;2023-08-12T12:02:26;95759.94;;;28.59;57.81
73674;BME280;61975;48.660;10.164;2023-08-12T12:04:52;95748.34;;;28.68;57.72
73674;BME280;61975;48.660;10.164;2023-08-12T12:07:23;95756.34;;;28.84;58.35
73674;BME280;61975;48.660;10.164;2023-08-12T12:09:52;95741.50;;;29.00;56.84
73674;BME280;61975;48.660;10.164;2023-08-12T12:12:21;95738.50;;;29.09;57.87
73674;BME280;61975;48.660;10.164;2023-08-12T12:14:48;95733.13;;;29.17;57.71
73674;BME280;61975;48.660;10.164;2023-08-12T12:17:14;95728.78;;;29.21;55.37
73674;BME280;61975;48.660;10.164;2023-08-12T12:19:40;95725.47;;;29.28;53.24
73674;BME280;61975;48.660;10.164;2023-08-12T12:22:06;95736.72;;;29.37;53.33
73674;BME280;61975;48.660;10.164;2023-08-12T12:24:31;95731.69;;;29.52;52.07
73674;BME280;61975;48.660;10.164;2023-08-12T12:26:57;95746.69;;;29.67;51.17
73674;BME280;61975;48.660;10.164;2023-08-12T12:29:22;95763.69;;;29.76;50.39
73674;BME280;61975;48.660;10.164;2023-08-12T12:31:48;95758.84;;;29.88;49.90
73674;BME280;61975;48.660;10.164;2023-08-12T12:34:13;95761.78;;;29.93;49.08
73674;BME280;61975;48.660;10.164;2023-08-12T12:36:39;95772.03;;;30.05;49.04
73674;BME280;61975;48.660;10.164;2023-08-12T12:39:06;95773.91;;;30.14;49.14
73674;BME280;61975;48.660;10.164;2023-08-12T12:41:32;95774.31;;;30.01;47.65
73674;BME280;61975;48.660;10.164;2023-08-12T12:43:59;95778.16;;;29.93;48.17
73674;BME280;61975;48.660;10.164;2023-08-12T12:46:25;95767.16;;;29.86;47.15
73674;BME280;61975;48.660;10.164;2023-08-12T12:48:50;95777.50;;;29.78;47.20
73674;BME280;61975;48.660;10.164;2023-08-12T12:51:15;95760.50;;;29.69;47.15
73674;BME280;61975;48.660;10.164;2023-08-12T12:53:41;95763.56;;;29.65;47.66